Bellefontaine, Ohio
Current Conditions -  °F | °C
As of 12:10 PM on Thursday 18 Dec 2014 (Local Time) from KEDJ Reporting Station
Overcast Overcast  
Wind Chill: 19°   Ceiling: 1400
Heat Index: 27°   Visibility: 10mi
Dew Point: 21°   Wind: 7mph
Humidity: 80%   Direction: 260°W
Pressure: 30.23"   Gusts: NA
Location:  40.36°N, 83.76°W
Report Text: KEDJ 181710Z AUTO 26006KT 10SM OVC014 M03/M06 A3023 RMK AO1
Loading
Personal Weather Stations






























Interactive Weather Map New forecast layout! Learn more

10-Day Weather Forecast

Advertisements
Track Severe Weather on mobile